ETD505 OMAA-OBBI
Flight info
| Callsign | ETD505 |
|---|---|
| Flight time | 1h 5m |
| Altitude | 26000 |
| Route | BOSEV N563 IMGUX P699 ORMID M556 ORDIG |
| Aircraft | A21N/M-SDE3FGHIRWY/LB1 |
Departure
| Time | 2026-04-27 17:15 |
|---|---|
| Airport | Zayed International Airport (OMAA) |
Arrival
| Time | 2026-04-27 18:21 |
|---|---|
| Airport | Bahrain International Airport (OBBI) |
| Time | Latitude | Longitude | Altitude | Speed | Heading |
|---|---|---|---|---|---|
| 2026-04-27 17:06 | 24.44383 | 54.64371 | 91 ft | 0 kts | 159° |
| 2026-04-27 17:06 | 24.44382 | 54.64371 | 91 ft | 0 kts | 159° |
| 2026-04-27 17:06 | 24.44375 | 54.64374 | 91 ft | 2 kts | 160° |
| 2026-04-27 17:07 | 24.44347 | 54.64384 | 91 ft | 6 kts | 162° |
| 2026-04-27 17:07 | 24.44295 | 54.64422 | 91 ft | 10 kts | 131° |
| 2026-04-27 17:07 | 24.44239 | 54.64497 | 91 ft | 14 kts | 128° |
| 2026-04-27 17:07 | 24.44167 | 54.64598 | 91 ft | 18 kts | 127° |
| 2026-04-27 17:08 | 24.44101 | 54.64693 | 91 ft | 14 kts | 129° |
| 2026-04-27 17:08 | 24.44044 | 54.64766 | 91 ft | 10 kts | 146° |
| 2026-04-27 17:08 | 24.43972 | 54.64755 | 91 ft | 9 kts | 213° |
| 2026-04-27 17:08 | 24.43908 | 54.64737 | 91 ft | 6 kts | 164° |
| 2026-04-27 17:09 | 24.43866 | 54.64780 | 91 ft | 7 kts | 153° |
| 2026-04-27 17:09 | 24.43822 | 54.64748 | 91 ft | 9 kts | 221° |
| 2026-04-27 17:09 | 24.43772 | 54.64772 | 91 ft | 11 kts | 129° |
| 2026-04-27 17:09 | 24.43715 | 54.64851 | 91 ft | 15 kts | 128° |
| 2026-04-27 17:10 | 24.43641 | 54.64956 | 91 ft | 19 kts | 128° |
| 2026-04-27 17:10 | 24.43554 | 54.65080 | 91 ft | 22 kts | 127° |
| 2026-04-27 17:10 | 24.43452 | 54.65222 | 91 ft | 24 kts | 129° |
| 2026-04-27 17:10 | 24.43342 | 54.65375 | 91 ft | 26 kts | 128° |
| 2026-04-27 17:11 | 24.43225 | 54.65543 | 91 ft | 28 kts | 128° |
| 2026-04-27 17:11 | 24.42972 | 54.65899 | 91 ft | 29 kts | 128° |
| 2026-04-27 17:11 | 24.42843 | 54.66081 | 91 ft | 30 kts | 128° |
| 2026-04-27 17:12 | 24.42590 | 54.66436 | 91 ft | 30 kts | 128° |
| 2026-04-27 17:12 | 24.42466 | 54.66615 | 91 ft | 21 kts | 126° |
| 2026-04-27 17:12 | 24.42405 | 54.66698 | 91 ft | 13 kts | 133° |
| 2026-04-27 17:13 | 24.42347 | 54.66703 | 91 ft | 0 kts | 223° |
| 2026-04-27 17:13 | 24.42340 | 54.66697 | 91 ft | 2 kts | 218° |
| 2026-04-27 17:13 | 24.42311 | 54.66672 | 91 ft | 7 kts | 218° |
| 2026-04-27 17:14 | 24.42269 | 54.66637 | 91 ft | 5 kts | 218° |
| 2026-04-27 17:14 | 24.42256 | 54.66587 | 91 ft | 9 kts | 296° |
| 2026-04-27 17:14 | 24.42301 | 54.66530 | 91 ft | 10 kts | 308° |
| 2026-04-27 17:14 | 24.42440 | 54.66336 | 91 ft | 63 kts | 308° |
| 2026-04-27 17:15 | 24.42850 | 54.65758 | 91 ft | 126 kts | 308° |
| 2026-04-27 17:15 | 24.43498 | 54.64836 | 143 ft | 169 kts | 308° |
| 2026-04-27 17:15 | 24.44226 | 54.63813 | 689 ft | 169 kts | 309° |
| 2026-04-27 17:15 | 24.44957 | 54.62804 | 1292 ft | 173 kts | 309° |
| 2026-04-27 17:16 | 24.45699 | 54.61779 | 1975 ft | 169 kts | 311° |
| 2026-04-27 17:16 | 24.46471 | 54.60784 | 2459 ft | 175 kts | 313° |
| 2026-04-27 17:16 | 24.47282 | 54.59764 | 2899 ft | 182 kts | 313° |
| 2026-04-27 17:16 | 24.48116 | 54.58656 | 3360 ft | 191 kts | 309° |
| 2026-04-27 17:17 | 24.48933 | 54.57441 | 3704 ft | 207 kts | 308° |
| 2026-04-27 17:17 | 24.49805 | 54.56114 | 4063 ft | 225 kts | 308° |
| 2026-04-27 17:17 | 24.50780 | 54.54669 | 4458 ft | 242 kts | 309° |
| 2026-04-27 17:18 | 24.52951 | 54.51547 | 5568 ft | 264 kts | 309° |
| 2026-04-27 17:18 | 24.54079 | 54.49944 | 6303 ft | 267 kts | 309° |
| 2026-04-27 17:18 | 24.55219 | 54.48328 | 7030 ft | 270 kts | 309° |
| 2026-04-27 17:18 | 24.56379 | 54.46685 | 7754 ft | 273 kts | 309° |
| 2026-04-27 17:19 | 24.57535 | 54.45048 | 8416 ft | 276 kts | 309° |
| 2026-04-27 17:19 | 24.58730 | 54.43356 | 8831 ft | 277 kts | 309° |
| 2026-04-27 17:19 | 24.59905 | 54.41691 | 8975 ft | 278 kts | 309° |
| 2026-04-27 17:19 | 24.61110 | 54.39985 | 8974 ft | 277 kts | 309° |
| 2026-04-27 17:20 | 24.62295 | 54.38312 | 8979 ft | 277 kts | 309° |
| 2026-04-27 17:20 | 24.63475 | 54.36647 | 8979 ft | 276 kts | 309° |
| 2026-04-27 17:20 | 24.64677 | 54.34952 | 9096 ft | 281 kts | 309° |
| 2026-04-27 17:20 | 24.65879 | 54.33258 | 9670 ft | 285 kts | 309° |
| 2026-04-27 17:21 | 24.67097 | 54.31543 | 10454 ft | 285 kts | 308° |
| 2026-04-27 17:21 | 24.68357 | 54.29770 | 10843 ft | 300 kts | 308° |
| 2026-04-27 17:21 | 24.69668 | 54.27918 | 11142 ft | 316 kts | 308° |
| 2026-04-27 17:21 | 24.71067 | 54.25940 | 11425 ft | 333 kts | 308° |
| 2026-04-27 17:22 | 24.72515 | 54.23891 | 11776 ft | 345 kts | 307° |
| 2026-04-27 17:22 | 24.74020 | 54.21763 | 12294 ft | 353 kts | 307° |
| 2026-04-27 17:22 | 24.75538 | 54.19615 | 12695 ft | 363 kts | 307° |
| 2026-04-27 17:22 | 24.77111 | 54.17389 | 13262 ft | 367 kts | 307° |
| 2026-04-27 17:23 | 24.78676 | 54.15172 | 13860 ft | 370 kts | 306° |
| 2026-04-27 17:23 | 24.80264 | 54.12924 | 14468 ft | 373 kts | 306° |
| 2026-04-27 17:23 | 24.81868 | 54.10651 | 15077 ft | 375 kts | 306° |
| 2026-04-27 17:23 | 24.83429 | 54.08364 | 15658 ft | 376 kts | 303° |
| 2026-04-27 17:24 | 24.84885 | 54.05954 | 16241 ft | 378 kts | 299° |
| 2026-04-27 17:24 | 24.86266 | 54.03509 | 16832 ft | 379 kts | 298° |
| 2026-04-27 17:24 | 24.87656 | 54.01025 | 17418 ft | 381 kts | 298° |
| 2026-04-27 17:24 | 24.89044 | 53.98540 | 18002 ft | 382 kts | 298° |
| 2026-04-27 17:25 | 24.90423 | 53.96066 | 18542 ft | 384 kts | 298° |
| 2026-04-27 17:25 | 24.91824 | 53.93557 | 19081 ft | 386 kts | 298° |
| 2026-04-27 17:25 | 24.93241 | 53.91022 | 19626 ft | 387 kts | 298° |
| 2026-04-27 17:25 | 24.94657 | 53.88491 | 20183 ft | 388 kts | 298° |
| 2026-04-27 17:26 | 24.96084 | 53.85938 | 20695 ft | 390 kts | 298° |
| 2026-04-27 17:26 | 24.97501 | 53.83397 | 21180 ft | 392 kts | 298° |
| 2026-04-27 17:26 | 24.98924 | 53.80854 | 21670 ft | 393 kts | 297° |
| 2026-04-27 17:26 | 25.00396 | 53.78309 | 22160 ft | 396 kts | 300° |
| 2026-04-27 17:27 | 25.02059 | 53.75843 | 22631 ft | 399 kts | 304° |
| 2026-04-27 17:27 | 25.03868 | 53.73553 | 23070 ft | 404 kts | 309° |
| 2026-04-27 17:27 | 25.05865 | 53.71337 | 23513 ft | 407 kts | 311° |
| 2026-04-27 17:27 | 25.07888 | 53.69164 | 23957 ft | 408 kts | 311° |
| 2026-04-27 17:28 | 25.09951 | 53.66959 | 24364 ft | 411 kts | 311° |
| 2026-04-27 17:28 | 25.11994 | 53.64772 | 24768 ft | 413 kts | 311° |
| 2026-04-27 17:28 | 25.16118 | 53.60350 | 25485 ft | 418 kts | 311° |
| 2026-04-27 17:29 | 25.18225 | 53.58089 | 25768 ft | 419 kts | 311° |
| 2026-04-27 17:29 | 25.20327 | 53.55831 | 25783 ft | 420 kts | 311° |
| 2026-04-27 17:29 | 25.22402 | 53.53597 | 25786 ft | 420 kts | 311° |
| 2026-04-27 17:29 | 25.24494 | 53.51346 | 25786 ft | 419 kts | 311° |
| 2026-04-27 17:30 | 25.26582 | 53.49097 | 25780 ft | 420 kts | 311° |
| 2026-04-27 17:30 | 25.30755 | 53.44603 | 25782 ft | 420 kts | 311° |
| 2026-04-27 17:30 | 25.32859 | 53.42337 | 25782 ft | 420 kts | 311° |
| 2026-04-27 17:31 | 25.34936 | 53.40095 | 25786 ft | 420 kts | 311° |
| 2026-04-27 17:31 | 25.37044 | 53.37820 | 25784 ft | 420 kts | 311° |
| 2026-04-27 17:31 | 25.39121 | 53.35579 | 25786 ft | 420 kts | 311° |
| 2026-04-27 17:31 | 25.41208 | 53.33327 | 25787 ft | 421 kts | 311° |
| 2026-04-27 17:32 | 25.43298 | 53.31072 | 25784 ft | 421 kts | 311° |
| 2026-04-27 17:32 | 25.47409 | 53.26437 | 25774 ft | 418 kts | 304° |
| 2026-04-27 17:32 | 25.49026 | 53.23777 | 25783 ft | 413 kts | 296° |
| 2026-04-27 17:33 | 25.50218 | 53.20916 | 25776 ft | 410 kts | 288° |
| 2026-04-27 17:33 | 25.51011 | 53.17851 | 25784 ft | 409 kts | 282° |
| 2026-04-27 17:33 | 25.51650 | 53.14804 | 25781 ft | 408 kts | 281° |
| 2026-04-27 17:33 | 25.52270 | 53.11745 | 25784 ft | 409 kts | 281° |
| 2026-04-27 17:34 | 25.52895 | 53.08661 | 25784 ft | 409 kts | 281° |
| 2026-04-27 17:34 | 25.53516 | 53.05599 | 25780 ft | 410 kts | 281° |
| 2026-04-27 17:34 | 25.54144 | 53.02521 | 25780 ft | 409 kts | 281° |
| 2026-04-27 17:34 | 25.54767 | 52.99453 | 25787 ft | 410 kts | 281° |
| 2026-04-27 17:35 | 25.55399 | 52.96353 | 25788 ft | 410 kts | 281° |
| 2026-04-27 17:35 | 25.55875 | 52.94353 | 25788 ft | 411 kts | 283° |
| 2026-04-27 17:35 | 25.56858 | 52.91072 | 25795 ft | 412 kts | 288° |
| 2026-04-27 17:35 | 25.57540 | 52.89205 | 25796 ft | 413 kts | 290° |
| 2026-04-27 17:36 | 25.58775 | 52.86331 | 25799 ft | 415 kts | 294° |
| 2026-04-27 17:36 | 25.60132 | 52.83504 | 25798 ft | 416 kts | 295° |
| 2026-04-27 17:36 | 25.61508 | 52.80677 | 25793 ft | 416 kts | 295° |
| 2026-04-27 17:36 | 25.62865 | 52.77899 | 25798 ft | 414 kts | 295° |
| 2026-04-27 17:37 | 25.64241 | 52.75079 | 25798 ft | 414 kts | 295° |
| 2026-04-27 17:37 | 25.65601 | 52.72292 | 25796 ft | 414 kts | 295° |
| 2026-04-27 17:37 | 25.66976 | 52.69472 | 25798 ft | 413 kts | 295° |
| 2026-04-27 17:37 | 25.68339 | 52.66672 | 25800 ft | 415 kts | 295° |
| 2026-04-27 17:38 | 25.69709 | 52.63856 | 25796 ft | 415 kts | 295° |
| 2026-04-27 17:38 | 25.71082 | 52.61031 | 25798 ft | 414 kts | 295° |
| 2026-04-27 17:38 | 25.72451 | 52.58212 | 25802 ft | 414 kts | 295° |
| 2026-04-27 17:38 | 25.73827 | 52.55374 | 25793 ft | 415 kts | 295° |
| 2026-04-27 17:39 | 25.75174 | 52.52598 | 25794 ft | 415 kts | 295° |
| 2026-04-27 17:39 | 25.76543 | 52.49759 | 25796 ft | 414 kts | 295° |
| 2026-04-27 17:39 | 25.77870 | 52.46921 | 25796 ft | 414 kts | 294° |
| 2026-04-27 17:39 | 25.79173 | 52.44107 | 25801 ft | 413 kts | 294° |
| 2026-04-27 17:40 | 25.80492 | 52.41255 | 25805 ft | 414 kts | 294° |
| 2026-04-27 17:40 | 25.81795 | 52.38443 | 25803 ft | 413 kts | 295° |
| 2026-04-27 17:40 | 25.83111 | 52.35606 | 25799 ft | 414 kts | 295° |
| 2026-04-27 17:40 | 25.84439 | 52.32742 | 25803 ft | 414 kts | 294° |
| 2026-04-27 17:41 | 25.85820 | 52.29966 | 25797 ft | 415 kts | 298° |
| 2026-04-27 17:41 | 25.87411 | 52.27248 | 25793 ft | 416 kts | 302° |
| 2026-04-27 17:41 | 25.89151 | 52.24698 | 25790 ft | 418 kts | 305° |
| 2026-04-27 17:41 | 25.91060 | 52.22267 | 25793 ft | 418 kts | 308° |
| 2026-04-27 17:42 | 25.93024 | 52.19881 | 25798 ft | 418 kts | 309° |
| 2026-04-27 17:42 | 25.95000 | 52.17499 | 25796 ft | 419 kts | 309° |
| 2026-04-27 17:42 | 25.96981 | 52.15112 | 25795 ft | 419 kts | 309° |
| 2026-04-27 17:42 | 25.98934 | 52.12754 | 25792 ft | 419 kts | 309° |
| 2026-04-27 17:43 | 26.00921 | 52.10352 | 25791 ft | 420 kts | 309° |
| 2026-04-27 17:43 | 26.02912 | 52.07945 | 25793 ft | 418 kts | 309° |
| 2026-04-27 17:43 | 26.04875 | 52.05570 | 25790 ft | 418 kts | 309° |
| 2026-04-27 17:43 | 26.06833 | 52.03200 | 25788 ft | 419 kts | 309° |
| 2026-04-27 17:44 | 26.08815 | 52.00797 | 25793 ft | 418 kts | 309° |
| 2026-04-27 17:44 | 26.10778 | 51.98421 | 25683 ft | 419 kts | 309° |
| 2026-04-27 17:44 | 26.12778 | 51.95999 | 25428 ft | 417 kts | 308° |
| 2026-04-27 17:44 | 26.14733 | 51.93626 | 25168 ft | 415 kts | 308° |
| 2026-04-27 17:45 | 26.16684 | 51.91258 | 24912 ft | 413 kts | 308° |
| 2026-04-27 17:45 | 26.18614 | 51.88914 | 24660 ft | 412 kts | 309° |
| 2026-04-27 17:45 | 26.20503 | 51.86528 | 24401 ft | 409 kts | 304° |
| 2026-04-27 17:45 | 26.22027 | 51.83857 | 24157 ft | 403 kts | 296° |
| 2026-04-27 17:46 | 26.23372 | 51.81136 | 23906 ft | 401 kts | 295° |
| 2026-04-27 17:46 | 26.24701 | 51.78421 | 23650 ft | 400 kts | 295° |
| 2026-04-27 17:46 | 26.26050 | 51.75715 | 23391 ft | 399 kts | 296° |
| 2026-04-27 17:46 | 26.27426 | 51.72998 | 23137 ft | 398 kts | 296° |
| 2026-04-27 17:47 | 26.28801 | 51.70314 | 22887 ft | 396 kts | 297° |
| 2026-04-27 17:47 | 26.29709 | 51.68549 | 22720 ft | 396 kts | 296° |
| 2026-04-27 17:47 | 26.31529 | 51.65015 | 22402 ft | 393 kts | 297° |
| 2026-04-27 17:47 | 26.32878 | 51.62403 | 22155 ft | 393 kts | 296° |
| 2026-04-27 17:48 | 26.34248 | 51.59749 | 21912 ft | 392 kts | 296° |
| 2026-04-27 17:48 | 26.35598 | 51.57135 | 21680 ft | 392 kts | 297° |
| 2026-04-27 17:48 | 26.36903 | 51.54472 | 21440 ft | 390 kts | 294° |
| 2026-04-27 17:48 | 26.38034 | 51.51701 | 21196 ft | 389 kts | 290° |
| 2026-04-27 17:49 | 26.39002 | 51.48906 | 20952 ft | 388 kts | 288° |
| 2026-04-27 17:49 | 26.39898 | 51.46088 | 20716 ft | 387 kts | 287° |
| 2026-04-27 17:49 | 26.40793 | 51.43254 | 20472 ft | 387 kts | 287° |
| 2026-04-27 17:49 | 26.41682 | 51.40449 | 20232 ft | 386 kts | 287° |
| 2026-04-27 17:50 | 26.42584 | 51.37611 | 19987 ft | 385 kts | 288° |
| 2026-04-27 17:50 | 26.44807 | 51.32217 | 19498 ft | 390 kts | 304° |
| 2026-04-27 17:50 | 26.46782 | 51.30115 | 19256 ft | 395 kts | 321° |
| 2026-04-27 17:51 | 26.49261 | 51.28704 | 19014 ft | 402 kts | 337° |
| 2026-04-27 17:51 | 26.52028 | 51.28125 | 18775 ft | 409 kts | 354° |
| 2026-04-27 17:51 | 26.54899 | 51.28439 | 18533 ft | 415 kts | 10° |
| 2026-04-27 17:51 | 26.57566 | 51.29612 | 18289 ft | 420 kts | 27° |
| 2026-04-27 17:52 | 26.59894 | 51.31600 | 18048 ft | 422 kts | 44° |
| 2026-04-27 17:52 | 26.61635 | 51.34215 | 17808 ft | 421 kts | 60° |
| 2026-04-27 17:52 | 26.62659 | 51.37286 | 17566 ft | 419 kts | 78° |
| 2026-04-27 17:52 | 26.62887 | 51.39424 | 17406 ft | 417 kts | 89° |
| 2026-04-27 17:53 | 26.62260 | 51.43663 | 17091 ft | 412 kts | 109° |
| 2026-04-27 17:53 | 26.61309 | 51.46653 | 16854 ft | 412 kts | 112° |
| 2026-04-27 17:53 | 26.60285 | 51.49661 | 16609 ft | 411 kts | 112° |
| 2026-04-27 17:53 | 26.59273 | 51.52597 | 16372 ft | 409 kts | 112° |
| 2026-04-27 17:54 | 26.58253 | 51.55564 | 16127 ft | 407 kts | 112° |
| 2026-04-27 17:54 | 26.57248 | 51.58502 | 15888 ft | 405 kts | 112° |
| 2026-04-27 17:54 | 26.56243 | 51.61451 | 15646 ft | 405 kts | 112° |
| 2026-04-27 17:54 | 26.55245 | 51.64379 | 15406 ft | 404 kts | 112° |
| 2026-04-27 17:55 | 26.54122 | 51.67265 | 15144 ft | 400 kts | 124° |
| 2026-04-27 17:55 | 26.52260 | 51.69512 | 14890 ft | 390 kts | 148° |
| 2026-04-27 17:55 | 26.49826 | 51.70685 | 14647 ft | 369 kts | 172° |
| 2026-04-27 17:55 | 26.47374 | 51.70829 | 14399 ft | 338 kts | 190° |
| 2026-04-27 17:56 | 26.45185 | 51.70250 | 14153 ft | 311 kts | 205° |
| 2026-04-27 17:56 | 26.43355 | 51.69159 | 13910 ft | 295 kts | 218° |
| 2026-04-27 17:56 | 26.41840 | 51.67617 | 13670 ft | 292 kts | 232° |
| 2026-04-27 17:56 | 26.40737 | 51.65754 | 13430 ft | 287 kts | 245° |
| 2026-04-27 17:57 | 26.40079 | 51.63679 | 13189 ft | 285 kts | 258° |
| 2026-04-27 17:57 | 26.39894 | 51.61455 | 12944 ft | 286 kts | 271° |
| 2026-04-27 17:57 | 26.40165 | 51.59253 | 12704 ft | 286 kts | 279° |
| 2026-04-27 17:57 | 26.40562 | 51.57072 | 12461 ft | 286 kts | 280° |
| 2026-04-27 17:58 | 26.40963 | 51.54934 | 12222 ft | 285 kts | 280° |
| 2026-04-27 17:58 | 26.41368 | 51.52755 | 12019 ft | 285 kts | 279° |
| 2026-04-27 17:58 | 26.41765 | 51.50597 | 11996 ft | 285 kts | 279° |
| 2026-04-27 17:58 | 26.42159 | 51.48426 | 11994 ft | 286 kts | 279° |
| 2026-04-27 17:59 | 26.42547 | 51.46295 | 11985 ft | 271 kts | 279° |
| 2026-04-27 17:59 | 26.42909 | 51.44307 | 11982 ft | 261 kts | 279° |
| 2026-04-27 17:59 | 26.43269 | 51.42303 | 11985 ft | 262 kts | 279° |
| 2026-04-27 17:59 | 26.43628 | 51.40305 | 11987 ft | 262 kts | 279° |
| 2026-04-27 18:00 | 26.43985 | 51.38308 | 11987 ft | 263 kts | 279° |
| 2026-04-27 18:00 | 26.44342 | 51.36325 | 11989 ft | 262 kts | 279° |
| 2026-04-27 18:00 | 26.44703 | 51.34307 | 11989 ft | 262 kts | 279° |
| 2026-04-27 18:00 | 26.45058 | 51.32337 | 11989 ft | 262 kts | 279° |
| 2026-04-27 18:01 | 26.45410 | 51.30335 | 11986 ft | 262 kts | 277° |
| 2026-04-27 18:01 | 26.45573 | 51.28300 | 11987 ft | 260 kts | 268° |
| 2026-04-27 18:01 | 26.45461 | 51.26318 | 11992 ft | 259 kts | 260° |
| 2026-04-27 18:01 | 26.45080 | 51.24356 | 11997 ft | 257 kts | 252° |
| 2026-04-27 18:02 | 26.44465 | 51.22478 | 12002 ft | 257 kts | 248° |
| 2026-04-27 18:02 | 26.43786 | 51.20638 | 12003 ft | 258 kts | 247° |
| 2026-04-27 18:02 | 26.43087 | 51.18767 | 12004 ft | 258 kts | 247° |
| 2026-04-27 18:02 | 26.42857 | 51.18151 | 12004 ft | 258 kts | 247° |
| 2026-04-27 18:03 | 26.41713 | 51.15083 | 12005 ft | 258 kts | 247° |
| 2026-04-27 18:03 | 26.41028 | 51.13239 | 12006 ft | 257 kts | 248° |
| 2026-04-27 18:03 | 26.40332 | 51.11373 | 12009 ft | 258 kts | 248° |
| 2026-04-27 18:03 | 26.39645 | 51.09521 | 12008 ft | 258 kts | 247° |
| 2026-04-27 18:04 | 26.38967 | 51.07696 | 11938 ft | 258 kts | 248° |
| 2026-04-27 18:04 | 26.38275 | 51.05835 | 11693 ft | 257 kts | 248° |
| 2026-04-27 18:04 | 26.37589 | 51.03988 | 11452 ft | 257 kts | 247° |
| 2026-04-27 18:04 | 26.36905 | 51.02147 | 11225 ft | 256 kts | 247° |
| 2026-04-27 18:05 | 26.36236 | 51.00348 | 10950 ft | 248 kts | 247° |
| 2026-04-27 18:05 | 26.35547 | 50.98500 | 10715 ft | 266 kts | 247° |
| 2026-04-27 18:05 | 26.34836 | 50.96590 | 10516 ft | 264 kts | 247° |
| 2026-04-27 18:05 | 26.34149 | 50.94750 | 10291 ft | 252 kts | 247° |
| 2026-04-27 18:06 | 26.33502 | 50.92981 | 10042 ft | 238 kts | 251° |
| 2026-04-27 18:06 | 26.33197 | 50.91236 | 9836 ft | 223 kts | 266° |
| 2026-04-27 18:06 | 26.33300 | 50.89570 | 9688 ft | 211 kts | 279° |
| 2026-04-27 18:06 | 26.33719 | 50.87981 | 9575 ft | 214 kts | 292° |
| 2026-04-27 18:07 | 26.34457 | 50.86549 | 9440 ft | 215 kts | 300° |
| 2026-04-27 18:07 | 26.35326 | 50.85187 | 9322 ft | 216 kts | 302° |
| 2026-04-27 18:07 | 26.36232 | 50.83825 | 9201 ft | 216 kts | 302° |
| 2026-04-27 18:07 | 26.37128 | 50.82489 | 9175 ft | 215 kts | 303° |
| 2026-04-27 18:08 | 26.38024 | 50.81140 | 9099 ft | 215 kts | 303° |
| 2026-04-27 18:08 | 26.38907 | 50.79807 | 8846 ft | 211 kts | 303° |
| 2026-04-27 18:08 | 26.39773 | 50.78493 | 8370 ft | 215 kts | 303° |
| 2026-04-27 18:08 | 26.40535 | 50.77079 | 7998 ft | 209 kts | 285° |
| 2026-04-27 18:09 | 26.40532 | 50.75505 | 7624 ft | 204 kts | 250° |
| 2026-04-27 18:09 | 26.39709 | 50.74265 | 7246 ft | 205 kts | 220° |
| 2026-04-27 18:09 | 26.38530 | 50.73372 | 6882 ft | 206 kts | 214° |
| 2026-04-27 18:09 | 26.37301 | 50.72542 | 6491 ft | 207 kts | 213° |
| 2026-04-27 18:10 | 26.36060 | 50.71718 | 6140 ft | 206 kts | 213° |
| 2026-04-27 18:10 | 26.34825 | 50.70905 | 6005 ft | 204 kts | 212° |
| 2026-04-27 18:10 | 26.33586 | 50.70085 | 6007 ft | 206 kts | 213° |
| 2026-04-27 18:10 | 26.32346 | 50.69264 | 6004 ft | 206 kts | 213° |
| 2026-04-27 18:11 | 26.31304 | 50.68187 | 5970 ft | 203 kts | 245° |
| 2026-04-27 18:11 | 26.31179 | 50.66671 | 5989 ft | 203 kts | 283° |
| 2026-04-27 18:11 | 26.31882 | 50.65293 | 6007 ft | 207 kts | 313° |
| 2026-04-27 18:11 | 26.33060 | 50.64337 | 6026 ft | 208 kts | 323° |
| 2026-04-27 18:12 | 26.34269 | 50.63430 | 6016 ft | 208 kts | 323° |
| 2026-04-27 18:12 | 26.35474 | 50.62499 | 6003 ft | 208 kts | 322° |
| 2026-04-27 18:12 | 26.36658 | 50.61568 | 6007 ft | 207 kts | 322° |
| 2026-04-27 18:12 | 26.37824 | 50.60634 | 5938 ft | 208 kts | 321° |
| 2026-04-27 18:13 | 26.39011 | 50.59679 | 5751 ft | 207 kts | 321° |
| 2026-04-27 18:13 | 26.40170 | 50.58740 | 5517 ft | 208 kts | 321° |
| 2026-04-27 18:13 | 26.41343 | 50.57787 | 5277 ft | 209 kts | 322° |
| 2026-04-27 18:13 | 26.42519 | 50.56831 | 5026 ft | 206 kts | 322° |
| 2026-04-27 18:14 | 26.43658 | 50.55907 | 4855 ft | 195 kts | 322° |
| 2026-04-27 18:14 | 26.44758 | 50.55017 | 4862 ft | 194 kts | 322° |
| 2026-04-27 18:14 | 26.45805 | 50.54078 | 4807 ft | 190 kts | 308° |
| 2026-04-27 18:14 | 26.46217 | 50.52757 | 4450 ft | 185 kts | 260° |
| 2026-04-27 18:15 | 26.45667 | 50.51525 | 4114 ft | 178 kts | 223° |
| 2026-04-27 18:15 | 26.44624 | 50.50818 | 3721 ft | 174 kts | 193° |
| 2026-04-27 18:15 | 26.43439 | 50.50679 | 3303 ft | 174 kts | 180° |
| 2026-04-27 18:15 | 26.42243 | 50.50612 | 2998 ft | 172 kts | 181° |
| 2026-04-27 18:16 | 26.41014 | 50.50524 | 2832 ft | 174 kts | 182° |
| 2026-04-27 18:16 | 26.39802 | 50.50420 | 2469 ft | 174 kts | 182° |
| 2026-04-27 18:16 | 26.38625 | 50.50309 | 2210 ft | 168 kts | 182° |
| 2026-04-27 18:16 | 26.37476 | 50.50193 | 1973 ft | 162 kts | 182° |
| 2026-04-27 18:17 | 26.36346 | 50.50077 | 1799 ft | 164 kts | 181° |
| 2026-04-27 18:17 | 26.35209 | 50.50037 | 1558 ft | 160 kts | 162° |
| 2026-04-27 18:17 | 26.34335 | 50.50700 | 1518 ft | 152 kts | 127° |
| 2026-04-27 18:17 | 26.33738 | 50.51685 | 1510 ft | 152 kts | 118° |
| 2026-04-27 18:18 | 26.33210 | 50.52696 | 1503 ft | 148 kts | 117° |
| 2026-04-27 18:18 | 26.32684 | 50.53667 | 1485 ft | 144 kts | 119° |
| 2026-04-27 18:18 | 26.32147 | 50.54616 | 1463 ft | 144 kts | 120° |
| 2026-04-27 18:18 | 26.31606 | 50.55551 | 1299 ft | 143 kts | 120° |
| 2026-04-27 18:19 | 26.31057 | 50.56493 | 1109 ft | 143 kts | 120° |
| 2026-04-27 18:19 | 26.30522 | 50.57415 | 925 ft | 142 kts | 120° |
| 2026-04-27 18:19 | 26.29981 | 50.58349 | 748 ft | 142 kts | 120° |
| 2026-04-27 18:19 | 26.29447 | 50.59271 | 570 ft | 141 kts | 120° |
| 2026-04-27 18:20 | 26.28915 | 50.60195 | 391 ft | 140 kts | 120° |
| 2026-04-27 18:20 | 26.28400 | 50.61105 | 227 ft | 140 kts | 121° |
| 2026-04-27 18:20 | 26.27862 | 50.62017 | 57 ft | 138 kts | 120° |
| 2026-04-27 18:20 | 26.27385 | 50.62851 | 12 ft | 111 kts | 122° |
| 2026-04-27 18:21 | 26.27059 | 50.63412 | 12 ft | 61 kts | 124° |
| 2026-04-27 18:21 | 26.26902 | 50.63682 | 12 ft | 28 kts | 123° |
| 2026-04-27 18:21 | 26.26820 | 50.63739 | 12 ft | 6 kts | 160° |
| 2026-04-27 18:21 | 26.26813 | 50.63742 | 12 ft | 0 kts | 160° |
| 2026-04-27 18:22 | 26.26810 | 50.63743 | 12 ft | 0 kts | 163° |
| 2026-04-27 18:22 | 26.26802 | 50.63746 | 12 ft | 1 kts | 165° |
| 2026-04-27 18:22 | 26.26787 | 50.63749 | 12 ft | 2 kts | 166° |
| 2026-04-27 18:22 | 26.26765 | 50.63755 | 12 ft | 3 kts | 167° |
| 2026-04-27 18:23 | 26.26761 | 50.63757 | 12 ft | 0 kts | 167° |
| 2026-04-27 18:24 | 26.26757 | 50.63758 | 12 ft | 1 kts | 167° |
| 2026-04-27 18:24 | 26.26745 | 50.63761 | 12 ft | 2 kts | 167° |
| 2026-04-27 18:24 | 26.26726 | 50.63765 | 12 ft | 3 kts | 166° |
| 2026-04-27 18:25 | 26.26702 | 50.63771 | 12 ft | 4 kts | 174° |
| 2026-04-27 18:25 | 26.26673 | 50.63760 | 12 ft | 4 kts | 227° |
| 2026-04-27 18:25 | 26.26673 | 50.63722 | 12 ft | 5 kts | 295° |
| 2026-04-27 18:25 | 26.26699 | 50.63674 | 12 ft | 9 kts | 303° |
| 2026-04-27 18:26 | 26.26741 | 50.63604 | 12 ft | 12 kts | 304° |
| 2026-04-27 18:26 | 26.26797 | 50.63504 | 12 ft | 17 kts | 301° |
| 2026-04-27 18:26 | 26.26851 | 50.63408 | 12 ft | 16 kts | 302° |
| 2026-04-27 18:26 | 26.26917 | 50.63293 | 12 ft | 15 kts | 303° |
| 2026-04-27 18:27 | 26.26959 | 50.63214 | 12 ft | 11 kts | 297° |
| 2026-04-27 18:27 | 26.27001 | 50.63125 | 12 ft | 12 kts | 300° |
| 2026-04-27 18:27 | 26.27051 | 50.63041 | 12 ft | 14 kts | 308° |
| 2026-04-27 18:27 | 26.27112 | 50.62956 | 12 ft | 11 kts | 296° |
| 2026-04-27 18:28 | 26.27115 | 50.62934 | 12 ft | 7 kts | 262° |